^^
MeteoGriva-Weather Station Historical Data
Daily Summary for April 12, 2020 Units:  English    Metric   Both
Daily Weekly Monthly Yearly Custom
  High: Low: Average:
Temperature: 45 °F 32 °F 41.5 °F
Dew Point: 43.5 °F 32 °F 39.6 °F
Humidity: 99% % 84%
Wind Speed: 2.1mph 0mph 0.1mph
Wind Gust: 7.6mph - -
Wind- - WNW
Pressure: 30.4 in 30.2 in -
Precipitation: 0.13 in    
Historical Graphs
 
 
Tabular Data for April 12, 2020
Time Temperature Dew Point Pressure Wind Wind Speed Wind Gust Humidity Rainfall Rate (Hourly) solar
00:04 45 °F 36 °F 30.2 in Calm     70.6% 0 in 0 W/m2
00:09 45 °F 36 °F 30.2 in Calm     70.6% 0 in 0 W/m2
00:14 44.8 °F 36 °F 30.2 in Calm     71% 0 in 0 W/m2
00:19 44.8 °F 35.8 °F 30.2 in Calm     70.6% 0 in 0 W/m2
00:24 44.8 °F 36 °F 30.2 in Calm     71.1% 0 in 0 W/m2
00:29 44.8 °F 36.1 °F 30.2 in Calm     72% 0 in 0 W/m2
00:34 44.6 °F 36.1 °F 30.2 in Calm     72% 0 in 0 W/m2
00:39 44.6 °F 36.1 °F 30.2 in Calm     72% 0 in 0 W/m2
00:44 44.4 °F 36.1 °F 30.2 in Calm     72.6% 0 in 0 W/m2
00:49 44.4 °F 36.3 °F 30.2 in Calm     73% 0 in 0 W/m2
00:54 44.4 °F 36.5 °F 30.2 in Calm     73.7% 0 in 0 W/m2
00:59 44.4 °F 36.5 °F 30.2 in Calm     73.4% 0 in 0 W/m2
01:04 44.1 °F 36.1 °F 30.2 in Calm     73.6% 0 in 0 W/m2
01:09 44.1 °F 36.5 °F 30.2 in Calm     74.7% 0 in 0 W/m2
01:14 44.1 °F 36.9 °F 30.2 in Calm     75.6% 0 in 0 W/m2
01:19 43.9 °F 36.9 °F 30.2 in Calm     76% 0 in 0 W/m2
01:24 43.7 °F 36.7 °F 30.2 in Calm     76% 0 in 0 W/m2
01:29 43.7 °F 36.7 °F 30.2 in Calm     76% 0 in 0 W/m2
01:34 43.7 °F 36.3 °F 30.2 in Calm     75.1% 0 in 0 W/m2
01:39 43.7 °F 36.3 °F 30.2 in Calm     75% 0 in 0 W/m2
01:44 43.9 °F 36.7 °F 30.2 in Calm     75.8% 0 in 0 W/m2
01:49 43.7 °F 36.7 °F 30.2 in Calm     75.8% 0 in 0 W/m2
01:54 43.9 °F 37.2 °F 30.2 in Calm     77.2% 0 in 0 W/m2
01:59 43.9 °F 37.4 °F 30.2 in Calm     78% 0 in 0 W/m2
02:04 43.9 °F 37.4 °F 30.2 in Calm     77.6% 0 in 0 W/m2
02:09 43.9 °F 37.2 °F 30.2 in Calm     77% 0 in 0 W/m2
02:14 43.9 °F 37.4 °F 30.2 in Calm     77.8% 0 in 0 W/m2
02:19 43.9 °F 37.4 °F 30.2 in Calm     78% 0 in 0 W/m2
02:24 43.7 °F 37.2 °F 30.2 in Calm     78% 0 in 0 W/m2
02:29 43.7 °F 37.2 °F 30.2 in Calm     78% 0 in 0 W/m2
02:34 43.7 °F 37.2 °F 30.2 in Calm     78.2% 0 in 0 W/m2
02:39 43.7 °F 37.4 °F 30.2 in Calm     78.2% 0 in 0 W/m2
02:44 43.7 °F 37.6 °F 30.2 in Calm     79% 0 in 0 W/m2
02:49 43.7 °F 37.6 °F 30.2 in Calm     79% 0 in 0 W/m2
02:54 43.9 °F 37.8 °F 30.2 in Calm     78.9% 0 in 0 W/m2
02:59 44.1 °F 37.6 °F 30.2 in Calm     78.2% 0 in 0 W/m2
03:04 44.2 °F 38.1 °F 30.2 in Calm     78.8% 0 in 0 W/m2
03:09 44.2 °F 38.1 °F 30.2 in Calm     79.2% 0 in 0 W/m2
03:14 44.2 °F 38.3 °F 30.2 in Calm     79.6% 0 in 0 W/m2
03:19 44.2 °F 38.8 °F 30.2 in Calm     81% 0 in 0 W/m2
03:24 44.2 °F 38.7 °F 30.2 in Calm     80.8% 0 in 0 W/m2
03:29 44.2 °F 38.7 °F 30.2 in Calm     80.4% 0 in 0 W/m2
03:34 44.2 °F 38.7 °F 30.2 in Calm     80.8% 0 in 0 W/m2
03:39 44.2 °F 38.8 °F 30.2 in Calm     81.6% 0 in 0 W/m2
03:44 44.1 °F 38.7 °F 30.2 in Calm     81.2% 0 in 0 W/m2
03:49 44.1 °F 38.7 °F 30.2 in Calm     81% 0 in 0 W/m2
03:54 44.1 °F 38.7 °F 30.2 in Calm     81% 0 in 0 W/m2
03:59 44.2 °F 38.5 °F 30.2 in Calm     80.3% 0 in 0 W/m2
04:04 45 °F 39.2 °F 30.2 in Calm     80.1% 0 in 0 W/m2
04:09 44.8 °F 39.4 °F 30.2 in Calm     81% 0 in 0 W/m2
04:14 44.8 °F 39.6 °F 30.2 in Calm     81.7% 0 in 0 W/m2
04:19 44.8 °F 39.6 °F 30.2 in Calm     82% 0 in 0 W/m2
04:24 44.2 °F 39.2 °F 30.2 in Calm     82.4% 0 in 0 W/m2
04:29 44.1 °F 39.7 °F 30.2 in Calm     84.6% 0 in 0 W/m2
04:34 43.9 °F 39.7 °F 30.2 in Calm     85.2% 0 in 0 W/m2
04:39 43.5 °F 39.6 °F 30.2 in Calm     85.3% 0 in 0 W/m2
04:44 42.3 °F 38.3 °F 30.2 in Calm     86.2% 0 in 0 W/m2
04:49 42.3 °F 38.3 °F 30.2 in Calm     86.2% 0 in 0 W/m2
04:54 42.3 °F 38.3 °F 30.2 in Calm     86% 0 in 0 W/m2
04:59 42.3 °F 38.3 °F 30.2 in Calm     86% 0 in 0 W/m2
05:04 42.4 °F 38.8 °F 30.2 in Calm     86.8% 0 in 0 W/m2
05:09 42.4 °F 39 °F 30.2 in Calm     87.7% 0 in 0 W/m2
05:14 42.3 °F 39 °F 30.2 in Calm     87.6% 0 in 0 W/m2
05:19 42.3 °F 38.5 °F 30.2 in Calm     86.2% 0 in 0 W/m2
05:24 42.3 °F 38.5 °F 30.2 in Calm     86.4% 0 in 0 W/m2
05:29 42.3 °F 38.5 °F 30.2 in Calm     86.4% 0 in 0 W/m2
05:34 42.4 °F 38.5 °F 30.2 in Calm     86% 0 in 0 W/m2
05:39 42.4 °F 38.5 °F 30.2 in Calm     86% 0 in 0 W/m2
05:44 43.2 °F 39.2 °F 30.2 in Calm     86% 0 in 0 W/m2
05:49 43.3 °F 39.4 °F 30.2 in Calm     85.8% 0 in 0 W/m2
05:54 43.3 °F 39.4 °F 30.2 in Calm     85.8% 0 in 0 W/m2
05:59 43.3 °F 39.4 °F 30.2 in Calm     86% 0 in 0 W/m2
06:04 44.1 °F 40.1 °F 30.3 in Calm     86% 0 in 0 W/m2
06:09 44.2 °F 40.1 °F 30.3 in NNW 0.5 mph 4.9 mph 85.3% 0 in 0 W/m2
06:14 44.2 °F 40.1 °F 30.3 in Calm   2.5 mph 85% 0 in 0 W/m2
06:19 44.4 °F 40.1 °F 30.3 in Calm     84.4% 0 in 0 W/m2
06:24 45 °F 40.5 °F 30.3 in Calm     84% 0 in 0 W/m2
06:29 45 °F 40.5 °F 30.3 in Calm     84% 0 in 0 W/m2
06:34 45 °F 40.5 °F 30.3 in Calm     84.1% 0 in 0 W/m2
06:39 45 °F 40.6 °F 30.3 in Calm     85% 0 in 0 W/m2
06:44 44.8 °F 40.5 °F 30.3 in Calm     85% 0 in 0 W/m2
06:49 44.6 °F 40.5 °F 30.3 in Calm     85.3% 0 in 0 W/m2
06:54 44.6 °F 40.5 °F 30.3 in Calm     85.2% 0 in 0 W/m2
06:59 44.6 °F 40.6 °F 30.3 in Calm     86% 0 in 0 W/m2
07:04 44.1 °F 40.3 °F 30.3 in Calm     86.8% 0 in 0 W/m2
07:09 43.9 °F 40.3 °F 30.3 in Calm     87% 0 in 0 W/m2
07:14 43.9 °F 40.3 °F 30.3 in Calm     87% 0 in 0 W/m2
07:19 43.9 °F 40.3 °F 30.3 in Calm     87% 0 in 0 W/m2
07:24 44.1 °F 40.5 °F 30.3 in NNW 0.5 mph 4.9 mph 87% 0 in 0 W/m2
07:29 44.1 °F 40.6 °F 30.3 in NNW 1.3 mph 7.6 mph 87.4% 0 in 0 W/m2
07:34 44.1 °F 40.6 °F 30.3 in North 0.6 mph 7.6 mph 87.2% 0 in 0 W/m2
07:39 44.1 °F 40.6 °F 30.3 in North 1.6 mph 7.6 mph 87.7% 0 in 0 W/m2
07:44 44.2 °F 40.8 °F 30.3 in NNE 1.1 mph 4.9 mph 87.8% 0 in 0 W/m2
07:49 44.4 °F 41 °F 30.3 in North 1.1 mph 4.9 mph 87.7% 0 in 0 W/m2
07:54 44.4 °F 40.8 °F 30.3 in North 1 mph 7.6 mph 87.1% 0 in 0 W/m2
07:59 44.4 °F 41.2 °F 30.3 in NW 0.1 mph 4.9 mph 88.1% 0 in 0 W/m2
08:04 44.2 °F 41.4 °F 30.3 in Calm   2.5 mph 89.2% 0 in 0 W/m2
08:09 44.1 °F 41.4 °F 30.3 in Calm     90.1% 0 in 0 W/m2
08:14 44.1 °F 41.7 °F 30.3 in Calm   4.9 mph 91.7% 0 in 0 W/m2
08:19 44.1 °F 42.3 °F 30.3 in Calm   2.5 mph 93.6% 0 in 0 W/m2
08:24 43.7 °F 42.1 °F 30.3 in Calm     94.2% 0 in 0 W/m2
08:29 43.5 °F 42.1 °F 30.3 in Calm     94.8% 0 in 0 W/m2
08:34 43.5 °F 42.4 °F 30.3 in Calm     96.1% 0.07 in 4 W/m2
08:39 43.3 °F 42.8 °F 30.3 in Calm   4.9 mph 97.9% 0.07 in 6 W/m2
08:44 42.8 °F 42.4 °F 30.3 in NNW 2.1 mph 7.6 mph 98.2% 0.07 in 8 W/m2
08:49 42.4 °F 42.3 °F 30.3 in NW 0.3 mph 7.6 mph 99% 0 in 11 W/m2
08:54 42.4 °F 42.3 °F 30.3 in Calm   2.5 mph 99% 0 in 16 W/m2
08:59 42.4 °F 42.3 °F 30.3 in Calm     99% 0 in 16 W/m2
09:04 42.3 °F 42.1 °F 30.3 in Calm     99% 0 in 16 W/m2
09:09 42.1 °F 41.9 °F 30.3 in Calm     99% 0 in 13 W/m2
09:14 42.1 °F 41.9 °F 30.3 in Calm     99% 0 in 14 W/m2
09:19 42.1 °F 41.9 °F 30.3 in Calm     99% 0 in 14 W/m2
09:24 42.3 °F 42.1 °F 30.3 in Calm     99% 0 in 13 W/m2
09:29 42.3 °F 42.1 °F 30.3 in Calm     99% 0.07 in 12 W/m2
09:34 42.3 °F 42.1 °F 30.3 in Calm     99% 0.07 in 14 W/m2
09:39 42.3 °F 42.1 °F 30.3 in Calm     99% 0.07 in 13 W/m2
09:44 42.4 °F 42.3 °F 30.3 in Calm     99% 0 in 12 W/m2
09:49 42.3 °F 42.1 °F 30.3 in Calm     99% 0 in 17 W/m2
09:54 42.3 °F 42.1 °F 30.3 in Calm     99% 0 in 18 W/m2
09:59 42.3 °F 42.1 °F 30.3 in Calm     99% 0 in 18 W/m2
10:04 41.9 °F 41.7 °F 30.3 in Calm     99% 0 in 19 W/m2
10:09 41.7 °F 41.5 °F 30.3 in Calm     99% 0 in 19 W/m2
10:14 41.7 °F 41.5 °F 30.3 in Calm     99% 0 in 17 W/m2
10:19 41.5 °F 41.4 °F 30.3 in Calm     99% 0 in 19 W/m2
10:24 41.5 °F 41.4 °F 30.3 in Calm     99% 0 in 21 W/m2
10:29 41.5 °F 41.4 °F 30.3 in Calm     99% 0 in 22 W/m2
10:34 41.5 °F 41.4 °F 30.4 in Calm     99% 0 in 21 W/m2
10:39 41.5 °F 41.4 °F 30.4 in Calm     99% 0.07 in 20 W/m2
10:44 41.4 °F 41 °F 30.4 in Calm     99% 0.07 in 20 W/m2
10:49 41.2 °F 41 °F 30.4 in Calm     99% 0 in 19 W/m2
10:54 41.2 °F 41 °F 30.4 in Calm     99% 0 in 20 W/m2
10:59 41.2 °F 41 °F 30.4 in Calm     99% 0 in 19 W/m2
11:04 41.2 °F 41 °F 30.4 in Calm     99% 0 in 20 W/m2
11:09 41.2 °F 41 °F 30.4 in Calm     99% 0 in 19 W/m2
11:14 41.2 °F 41 °F 30.4 in Calm     99% 0 in 20 W/m2
11:19 41.2 °F 41 °F 30.4 in Calm     99% 0 in 25 W/m2
11:24 41.4 °F 41 °F 30.4 in Calm     99% 0 in 30 W/m2
11:29 41.4 °F 41.2 °F 30.4 in Calm     99% 0.07 in 31 W/m2
11:34 41.4 °F 41.2 °F 30.4 in Calm     99% 0.07 in 36 W/m2
11:39 41.4 °F 41.2 °F 30.4 in Calm     99% 0.07 in 39 W/m2
11:44 41.4 °F 41.2 °F 30.4 in Calm     99% 0 in 47 W/m2
11:49 41.5 °F 41.4 °F 30.4 in Calm     99% 0 in 47 W/m2
11:54 41.5 °F 41.4 °F 30.4 in Calm     99% 0.07 in 44 W/m2
11:59 41.5 °F 41.4 °F 30.4 in Calm     99% 0.07 in 39 W/m2
12:04 41.4 °F 41.4 °F 30.4 in Calm     99% 0.07 in 32 W/m2
12:09 41.2 °F 41 °F 30.4 in Calm     99% 0 in 31 W/m2
12:14 41.2 °F 41 °F 30.4 in Calm     99% 0 in 33 W/m2
12:19 41.2 °F 41 °F 30.4 in Calm     99% 0.07 in 31 W/m2
12:24 41.2 °F 41 °F 30.4 in Calm     99% 0.07 in 29 W/m2
12:29 41.2 °F 41 °F 30.4 in Calm     99% 0 in 30 W/m2
12:34 41.2 °F 41 °F 30.4 in Calm     99% 0 in 30 W/m2
12:39 41.2 °F 41 °F 30.4 in Calm     99% 0.07 in 30 W/m2
12:44 41.2 °F 41 °F 30.4 in Calm     99% 0.07 in 31 W/m2
12:49 41.4 °F 41 °F 30.4 in Calm     99% 0 in 35 W/m2
12:54 41.2 °F 41 °F 30.4 in Calm     99% 0.07 in 39 W/m2
12:59 41.4 °F 41.2 °F 30.4 in Calm     99% 0.07 in 45 W/m2
13:04 41.4 °F 41.2 °F 30.4 in Calm     99% 0.07 in 46 W/m2
13:09 41.5 °F 41.4 °F 30.3 in Calm     99% 0 in 48 W/m2
13:14 41.4 °F 41.2 °F 30.4 in Calm     99% 0 in 48 W/m2
13:19 41.4 °F 41.2 °F 30.4 in Calm     99% 0.07 in 41 W/m2
13:24 41.4 °F 41.2 °F 30.3 in Calm     99% 0.07 in 34 W/m2
13:29 41.4 °F 41 °F 30.3 in Calm     99% 0 in 32 W/m2
13:34 41.4 °F 41.2 °F 30.3 in Calm     99% 0 in 36 W/m2
13:39 41.4 °F 41 °F 30.3 in Calm     99% 0 in 43 W/m2
13:44 41.2 °F 41 °F 30.3 in Calm     99% 0 in 45 W/m2
13:49 41 °F 40.8 °F 30.3 in Calm     99% 0.07 in 43 W/m2
13:54 40.8 °F 40.6 °F 30.3 in Calm     99% 0.07 in 43 W/m2
13:59 40.8 °F 40.6 °F 30.3 in Calm     99% 0.07 in 46 W/m2
14:04 41 °F 40.8 °F 30.3 in Calm     99% 0 in 51 W/m2
14:09 41.5 °F 41.4 °F 30.3 in Calm     99% 0 in 53 W/m2
14:14 41.5 °F 41.5 °F 30.3 in Calm     99% 0 in 67 W/m2
14:19 41.7 °F 41.5 °F 30.3 in Calm     99% 0 in 67 W/m2
14:24 41.9 °F 41.7 °F 30.3 in Calm     99% 0 in 82 W/m2
14:29 42.6 °F 42.4 °F 30.3 in Calm     99% 0 in 90 W/m2
14:34 42.6 °F 42.4 °F 30.3 in Calm     99% 0.07 in 108 W/m2
14:39 42.6 °F 42.4 °F 30.3 in Calm     99% 0.07 in 112 W/m2
14:44 42.8 °F 42.6 °F 30.3 in Calm     99% 0.07 in 104 W/m2
14:49 43.5 °F 43.3 °F 30.3 in Calm     99% 0 in 92 W/m2
14:54 43.5 °F 43.3 °F 30.3 in Calm     99% 0 in 76 W/m2
14:59 43.5 °F 43.3 °F 30.3 in Calm     99% 0 in 70 W/m2
15:04 43.5 °F 43.3 °F 30.3 in Calm     99% 0 in 68 W/m2
15:09 43.7 °F 43.5 °F 30.3 in Calm     99% 0 in 57 W/m2
15:14 43.5 °F 43.3 °F 30.3 in Calm     99% 0 in 48 W/m2
15:19 43.5 °F 43.3 °F 30.3 in Calm     99% 0 in 37 W/m2
15:24 43.5 °F 43.3 °F 30.3 in Calm     99% 0 in 29 W/m2
15:29 43 °F 42.8 °F 30.3 in Calm     99% 0 in 26 W/m2
15:34 43 °F 42.8 °F 30.3 in Calm     99% 0 in 26 W/m2
15:39 43 °F 42.8 °F 30.3 in Calm     99% 0 in 27 W/m2
15:44 43 °F 42.8 °F 30.3 in Calm     99% 0 in 26 W/m2
15:49 43.2 °F 42.8 °F 30.3 in Calm     99% 0 in 28 W/m2
15:54 43 °F 42.8 °F 30.3 in Calm     99% 0 in 27 W/m2
15:59 43 °F 42.8 °F 30.4 in Calm     99% 0 in 29 W/m2
16:04 43 °F 42.8 °F 30.4 in Calm     99% 0 in 25 W/m2
16:09 42.6 °F 42.4 °F 30.4 in Calm     99% 0 in 25 W/m2
16:14 42.6 °F 42.4 °F 30.4 in Calm     99% 0 in 22 W/m2
16:19 42.6 °F 42.4 °F 30.4 in Calm     99% 0 in 17 W/m2
16:24 42.4 °F 42.3 °F 30.4 in Calm     99% 0 in 8 W/m2
16:29 42.1 °F 41.9 °F 30.4 in Calm     99% 0 in 4 W/m2
16:34 42.1 °F 41.9 °F 30.4 in Calm     99% 0 in 2 W/m2
16:39 42.1 °F 41.9 °F 30.4 in SSE 0.2 mph 2.5 mph 99% 0 in 0 W/m2
16:44 42.1 °F 41.9 °F 30.4 in Calm     99% 0 in 0 W/m2
16:49 42.1 °F 41.9 °F 30.4 in Calm     99% 0 in 0 W/m2
16:54 32 °F 32 °F 30.4 in Calm     % 0 in W/m2
16:59 32 °F 32 °F 30.4 in Calm     % 0 in W/m2
17:04 32 °F 32 °F 30.4 in Calm     % 0 in W/m2
17:09 32 °F 32 °F 30.4 in Calm     % 0 in W/m2
17:10 32 °F 32 °F 30.4 in Calm     % 0 in W/m2
17:24 32 °F 32 °F 30.3 in Calm     % 0 in W/m2
17:29 32 °F 32 °F 30.3 in Calm     % 0 in W/m2
17:34 32 °F 32 °F 30.3 in Calm     % 0 in W/m2
17:39 32 °F 32 °F 30.3 in Calm     % 0 in W/m2
17:44 32 °F 32 °F 30.3 in Calm     % 0 in W/m2
17:49 32 °F 32 °F 30.3 in Calm     % 0 in W/m2
17:54 32 °F 32 °F 30.3 in Calm     % 0 in W/m2
17:59 32 °F 32 °F 30.3 in Calm     % 0 in W/m2
18:04 41 °F 40.8 °F 30.4 in Calm     99% 0 in 0 W/m2
18:09 41 °F 40.8 °F 30.4 in Calm     99% 0 in 0 W/m2
18:14 41 °F 40.8 °F 30.4 in Calm     99% 0 in 0 W/m2
18:19 41.2 °F 41 °F 30.4 in Calm     99% 0 in 0 W/m2
18:24 41.4 °F 41.2 °F 30.4 in Calm     99% 0 in 0 W/m2
18:29 41.4 °F 41.2 °F 30.4 in Calm     99% 0 in 0 W/m2
18:34 41.4 °F 41.2 °F 30.4 in Calm     99% 0 in 0 W/m2
18:39 41.2 °F 41 °F 30.4 in Calm     99% 0 in 0 W/m2
18:44 41.2 °F 41 °F 30.4 in Calm     99% 0 in 0 W/m2
18:49 32 °F 32 °F 30.4 in Calm     % 0 in W/m2
18:54 32 °F 32 °F 30.4 in Calm     % 0 in W/m2
18:59 32 °F 32 °F 30.4 in Calm     % 0 in W/m2
19:04 32 °F 32 °F 30.4 in Calm     % 0 in W/m2
19:09 32 °F 32 °F 30.4 in Calm     % 0 in W/m2
19:14 32 °F 32 °F 30.4 in Calm     % 0 in W/m2
19:19 32 °F 32 °F 30.4 in Calm     % 0 in W/m2
19:24 32 °F 32 °F 30.4 in Calm     % 0 in W/m2
19:29 32 °F 32 °F 30.4 in Calm     % 0 in W/m2
19:34 32 °F 32 °F 30.4 in Calm     % 0 in W/m2
19:39 32 °F 32 °F 30.4 in Calm     % 0 in W/m2
19:44 32 °F 32 °F 30.4 in Calm     % 0 in W/m2
19:49 32 °F 32 °F 30.4 in Calm     % 0 in W/m2
19:54 40.8 °F 40.6 °F 30.4 in Calm     99% 0 in 0 W/m2
19:59 40.8 °F 40.6 °F 30.4 in Calm     99% 0 in 0 W/m2
20:04 40.8 °F 40.6 °F 30.4 in Calm     99% 0 in 0 W/m2
20:09 40.8 °F 40.6 °F 30.4 in Calm     99% 0 in 0 W/m2
20:14 40.8 °F 40.6 °F 30.4 in Calm     99% 0 in 0 W/m2
20:19 40.8 °F 40.6 °F 30.4 in Calm     99% 0 in 0 W/m2
20:24 41 °F 40.8 °F 30.4 in Calm     99% 0 in 0 W/m2
20:29 41 °F 40.8 °F 30.4 in Calm     99% 0 in 0 W/m2
20:34 41 °F 40.8 °F 30.4 in Calm     99% 0 in 0 W/m2
20:39 41 °F 40.8 °F 30.4 in Calm     99% 0 in 0 W/m2
20:44 41.2 °F 41 °F 30.4 in Calm     99% 0 in 0 W/m2
20:49 41 °F 40.8 °F 30.4 in Calm     99% 0 in 0 W/m2
20:54 41 °F 40.8 °F 30.4 in Calm     99% 0 in 0 W/m2
20:59 41 °F 40.8 °F 30.4 in Calm     99% 0 in 0 W/m2
21:04 40.8 °F 40.6 °F 30.4 in Calm     99% 0 in 0 W/m2
21:09 40.8 °F 40.6 °F 30.4 in Calm     99% 0 in 0 W/m2
21:14 41 °F 40.8 °F 30.4 in Calm     99% 0 in 0 W/m2
21:19 41.2 °F 41 °F 30.4 in Calm     99% 0 in 0 W/m2
21:24 41.2 °F 41 °F 30.4 in Calm     99% 0 in 0 W/m2
21:29 41.2 °F 41 °F 30.4 in Calm     99% 0 in 0 W/m2
21:34 41.2 °F 41 °F 30.4 in Calm     99% 0 in 0 W/m2
21:39 41.2 °F 41 °F 30.4 in Calm     99% 0 in 0 W/m2
21:44 41 °F 40.8 °F 30.4 in Calm     99% 0 in 0 W/m2
21:49 41 °F 40.8 °F 30.4 in Calm     99% 0 in 0 W/m2
21:54 41 °F 40.8 °F 30.4 in Calm     99% 0 in 0 W/m2
21:59 41.2 °F 41 °F 30.4 in Calm     99% 0 in 0 W/m2
22:04 41.2 °F 41 °F 30.4 in Calm     99% 0 in 0 W/m2
22:09 41.2 °F 41 °F 30.4 in Calm     99% 0 in 0 W/m2
22:14 41.2 °F 41 °F 30.4 in Calm     99% 0 in 0 W/m2
22:19 41.2 °F 41 °F 30.4 in Calm     99% 0 in 0 W/m2
22:24 41.4 °F 41.2 °F 30.4 in Calm     99% 0 in 0 W/m2
22:29 41.2 °F 41 °F 30.4 in Calm     99% 0 in 0 W/m2
22:34 41.2 °F 41 °F 30.4 in Calm     99% 0 in 0 W/m2
22:39 41.2 °F 41 °F 30.4 in Calm     99% 0 in 0 W/m2
22:44 41.2 °F 41 °F 30.4 in Calm     99% 0 in 0 W/m2
22:49 41.2 °F 41 °F 30.4 in Calm     99% 0 in 0 W/m2
22:54 41.2 °F 41 °F 30.4 in Calm     99% 0 in 0 W/m2
22:59 41 °F 40.8 °F 30.4 in Calm     99% 0 in 0 W/m2
23:04 41.2 °F 41 °F 30.4 in Calm     99% 0 in 0 W/m2
23:09 41 °F 40.8 °F 30.4 in Calm     99% 0 in 0 W/m2
23:14 41 °F 40.8 °F 30.4 in Calm     99% 0 in 0 W/m2
23:19 41 °F 40.8 °F 30.4 in Calm     99% 0 in 0 W/m2
23:24 41 °F 40.8 °F 30.4 in Calm     99% 0 in 0 W/m2
23:29 41 °F 40.8 °F 30.4 in Calm     99% 0 in 0 W/m2
23:34 41 °F 40.8 °F 30.4 in Calm     99% 0 in 0 W/m2
23:39 41 °F 40.8 °F 30.4 in Calm     99% 0 in 0 W/m2
23:44 41 °F 40.8 °F 30.4 in Calm     99% 0 in 0 W/m2
23:49 41 °F 40.8 °F 30.4 in Calm     99% 0 in 0 W/m2
23:54 41 °F 40.8 °F 30.4 in Calm     99% 0 in 0 W/m2
23:59 41 °F 40.8 °F 30.4 in Calm     99% 0 in 0 W/m2
Juneau County Weather
Compliments of Weather Underground - 2 mb